sensor_id;sensor_type;location;lat;lon;timestamp;P1;durP1;ratioP1;P2;durP2;ratioP2
22034;SDS011;11181;51.002;4.356;2022-12-29T00:01:40;1.43;;;1.00;;
22034;SDS011;11181;51.002;4.356;2022-12-29T00:04:10;1.50;;;1.23;;
22034;SDS011;11181;51.002;4.356;2022-12-29T00:06:39;1.20;;;1.03;;
22034;SDS011;11181;51.002;4.356;2022-12-29T00:09:06;2.80;;;1.30;;
22034;SDS011;11181;51.002;4.356;2022-12-29T00:11:33;2.10;;;1.30;;
22034;SDS011;11181;51.002;4.356;2022-12-29T00:14:00;2.37;;;1.20;;
22034;SDS011;11181;51.002;4.356;2022-12-29T00:16:47;1.40;;;1.30;;
22034;SDS011;11181;51.002;4.356;2022-12-29T00:19:15;1.17;;;0.90;;
22034;SDS011;11181;51.002;4.356;2022-12-29T00:21:59;1.90;;;1.50;;
22034;SDS011;11181;51.002;4.356;2022-12-29T00:24:44;1.40;;;0.90;;
22034;SDS011;11181;51.002;4.356;2022-12-29T00:27:28;1.23;;;0.97;;
22034;SDS011;11181;51.002;4.356;2022-12-29T00:30:14;0.97;;;0.73;;
22034;SDS011;11181;51.002;4.356;2022-12-29T00:33:00;1.80;;;1.03;;
22034;SDS011;11181;51.002;4.356;2022-12-29T00:35:46;4.63;;;2.60;;
22034;SDS011;11181;51.002;4.356;2022-12-29T00:38:18;1.13;;;1.00;;
22034;SDS011;11181;51.002;4.356;2022-12-29T00:41:04;1.93;;;1.00;;
22034;SDS011;11181;51.002;4.356;2022-12-29T00:43:48;0.97;;;0.80;;
22034;SDS011;11181;51.002;4.356;2022-12-29T00:46:35;1.93;;;0.93;;
22034;SDS011;11181;51.002;4.356;2022-12-29T00:49:03;2.73;;;0.80;;
22034;SDS011;11181;51.002;4.356;2022-12-29T00:51:49;1.60;;;0.80;;
22034;SDS011;11181;51.002;4.356;2022-12-29T00:54:17;2.20;;;0.90;;
22034;SDS011;11181;51.002;4.356;2022-12-29T00:56:45;1.67;;;0.60;;
22034;SDS011;11181;51.002;4.356;2022-12-29T00:59:12;2.70;;;1.00;;
22034;SDS011;11181;51.002;4.356;2022-12-29T01:01:39;2.70;;;1.00;;
22034;SDS011;11181;51.002;4.356;2022-12-29T01:04:07;3.13;;;0.90;;
22034;SDS011;11181;51.002;4.356;2022-12-29T01:06:35;1.17;;;0.60;;
22034;SDS011;11181;51.002;4.356;2022-12-29T01:09:05;6.20;;;1.10;;
22034;SDS011;11181;51.002;4.356;2022-12-29T01:11:51;3.87;;;0.97;;
22034;SDS011;11181;51.002;4.356;2022-12-29T01:14:18;3.27;;;0.70;;
22034;SDS011;11181;51.002;4.356;2022-12-29T01:16:45;3.70;;;0.93;;
22034;SDS011;11181;51.002;4.356;2022-12-29T01:19:13;2.10;;;0.87;;
22034;SDS011;11181;51.002;4.356;2022-12-29T01:21:41;1.53;;;0.80;;
22034;SDS011;11181;51.002;4.356;2022-12-29T01:24:09;2.70;;;0.63;;
22034;SDS011;11181;51.002;4.356;2022-12-29T01:26:36;4.33;;;1.17;;
22034;SDS011;11181;51.002;4.356;2022-12-29T01:29:03;3.30;;;0.97;;
22034;SDS011;11181;51.002;4.356;2022-12-29T01:31:30;1.73;;;0.77;;
22034;SDS011;11181;51.002;4.356;2022-12-29T01:33:57;2.23;;;0.53;;
22034;SDS011;11181;51.002;4.356;2022-12-29T01:36:24;2.90;;;0.60;;
22034;SDS011;11181;51.002;4.356;2022-12-29T01:38:51;1.60;;;0.60;;
22034;SDS011;11181;51.002;4.356;2022-12-29T01:41:20;1.57;;;0.70;;
22034;SDS011;11181;51.002;4.356;2022-12-29T01:43:47;2.70;;;0.90;;
22034;SDS011;11181;51.002;4.356;2022-12-29T01:46:18;2.93;;;0.70;;
22034;SDS011;11181;51.002;4.356;2022-12-29T01:48:50;2.53;;;0.67;;
22034;SDS011;11181;51.002;4.356;2022-12-29T01:51:20;1.90;;;0.77;;
22034;SDS011;11181;51.002;4.356;2022-12-29T01:53:49;0.97;;;0.53;;
22034;SDS011;11181;51.002;4.356;2022-12-29T01:56:17;3.00;;;0.83;;
22034;SDS011;11181;51.002;4.356;2022-12-29T01:58:48;4.00;;;1.10;;
22034;SDS011;11181;51.002;4.356;2022-12-29T02:01:20;1.83;;;0.77;;
22034;SDS011;11181;51.002;4.356;2022-12-29T02:03:47;2.03;;;0.83;;
22034;SDS011;11181;51.002;4.356;2022-12-29T02:06:17;0.57;;;0.57;;
22034;SDS011;11181;51.002;4.356;2022-12-29T02:08:49;1.20;;;0.80;;
22034;SDS011;11181;51.002;4.356;2022-12-29T02:11:18;2.93;;;0.80;;
22034;SDS011;11181;51.002;4.356;2022-12-29T02:13:47;3.40;;;0.70;;
22034;SDS011;11181;51.002;4.356;2022-12-29T02:16:18;1.20;;;0.60;;
22034;SDS011;11181;51.002;4.356;2022-12-29T02:19:05;3.03;;;0.80;;
22034;SDS011;11181;51.002;4.356;2022-12-29T02:21:53;1.80;;;0.60;;
22034;SDS011;11181;51.002;4.356;2022-12-29T02:24:45;4.77;;;0.70;;
22034;SDS011;11181;51.002;4.356;2022-12-29T02:33:20;1.30;;;0.70;;
22034;SDS011;11181;51.002;4.356;2022-12-29T02:35:56;3.47;;;0.70;;
22034;SDS011;11181;51.002;4.356;2022-12-29T02:38:38;2.43;;;0.60;;
22034;SDS011;11181;51.002;4.356;2022-12-29T02:41:20;4.67;;;0.70;;
22034;SDS011;11181;51.002;4.356;2022-12-29T02:43:52;2.23;;;0.60;;
22034;SDS011;11181;51.002;4.356;2022-12-29T02:46:27;2.63;;;0.63;;
22034;SDS011;11181;51.002;4.356;2022-12-29T02:49:02;1.43;;;0.60;;
22034;SDS011;11181;51.002;4.356;2022-12-29T02:51:35;3.43;;;0.77;;
22034;SDS011;11181;51.002;4.356;2022-12-29T02:54:07;1.77;;;0.73;;
22034;SDS011;11181;51.002;4.356;2022-12-29T02:56:52;2.70;;;0.57;;
22034;SDS011;11181;51.002;4.356;2022-12-29T02:59:19;3.67;;;0.90;;
22034;SDS011;11181;51.002;4.356;2022-12-29T03:01:55;3.37;;;0.60;;
22034;SDS011;11181;51.002;4.356;2022-12-29T03:04:47;0.67;;;0.67;;
22034;SDS011;11181;51.002;4.356;2022-12-29T03:07:32;2.40;;;0.63;;
22034;SDS011;11181;51.002;4.356;2022-12-29T03:10:06;2.77;;;0.80;;
22034;SDS011;11181;51.002;4.356;2022-12-29T03:12:41;6.37;;;0.70;;
22034;SDS011;11181;51.002;4.356;2022-12-29T03:15:34;1.83;;;0.70;;
22034;SDS011;11181;51.002;4.356;2022-12-29T03:18:31;1.80;;;0.67;;
22034;SDS011;11181;51.002;4.356;2022-12-29T03:21:08;2.50;;;0.70;;
22034;SDS011;11181;51.002;4.356;2022-12-29T03:23:40;2.00;;;0.93;;
22034;SDS011;11181;51.002;4.356;2022-12-29T03:26:12;4.20;;;0.60;;
22034;SDS011;11181;51.002;4.356;2022-12-29T03:28:43;3.70;;;1.73;;
22034;SDS011;11181;51.002;4.356;2022-12-29T03:31:13;2.83;;;0.60;;
22034;SDS011;11181;51.002;4.356;2022-12-29T03:33:43;6.03;;;1.33;;
22034;SDS011;11181;51.002;4.356;2022-12-29T03:36:12;3.93;;;0.77;;
22034;SDS011;11181;51.002;4.356;2022-12-29T03:38:45;2.70;;;0.70;;
22034;SDS011;11181;51.002;4.356;2022-12-29T03:41:16;5.30;;;0.83;;
22034;SDS011;11181;51.002;4.356;2022-12-29T03:43:47;3.57;;;1.23;;
22034;SDS011;11181;51.002;4.356;2022-12-29T03:46:14;4.77;;;1.63;;
22034;SDS011;11181;51.002;4.356;2022-12-29T03:48:41;2.90;;;0.73;;
22034;SDS011;11181;51.002;4.356;2022-12-29T03:51:09;4.10;;;0.90;;
22034;SDS011;11181;51.002;4.356;2022-12-29T03:53:36;1.03;;;0.57;;
22034;SDS011;11181;51.002;4.356;2022-12-29T03:56:03;4.73;;;0.87;;
22034;SDS011;11181;51.002;4.356;2022-12-29T03:58:30;6.93;;;1.03;;
22034;SDS011;11181;51.002;4.356;2022-12-29T04:00:57;1.30;;;0.80;;
22034;SDS011;11181;51.002;4.356;2022-12-29T04:03:24;6.40;;;0.70;;
22034;SDS011;11181;51.002;4.356;2022-12-29T04:05:51;4.10;;;0.60;;
22034;SDS011;11181;51.002;4.356;2022-12-29T04:08:19;1.93;;;0.50;;
22034;SDS011;11181;51.002;4.356;2022-12-29T04:10:47;1.63;;;0.50;;
22034;SDS011;11181;51.002;4.356;2022-12-29T04:13:14;2.57;;;0.70;;
22034;SDS011;11181;51.002;4.356;2022-12-29T04:15:42;3.07;;;0.53;;
22034;SDS011;11181;51.002;4.356;2022-12-29T04:18:10;2.43;;;0.60;;
22034;SDS011;11181;51.002;4.356;2022-12-29T04:20:37;4.23;;;1.00;;
22034;SDS011;11181;51.002;4.356;2022-12-29T04:23:23;1.63;;;0.60;;
22034;SDS011;11181;51.002;4.356;2022-12-29T04:25:50;1.80;;;0.80;;
22034;SDS011;11181;51.002;4.356;2022-12-29T04:28:17;4.97;;;0.63;;
22034;SDS011;11181;51.002;4.356;2022-12-29T04:30:44;3.40;;;0.87;;
22034;SDS011;11181;51.002;4.356;2022-12-29T04:33:11;3.93;;;0.83;;
22034;SDS011;11181;51.002;4.356;2022-12-29T04:35:39;2.47;;;1.00;;
22034;SDS011;11181;51.002;4.356;2022-12-29T04:38:06;3.47;;;0.90;;
22034;SDS011;11181;51.002;4.356;2022-12-29T04:40:34;2.10;;;0.90;;
22034;SDS011;11181;51.002;4.356;2022-12-29T04:43:01;3.37;;;1.07;;
22034;SDS011;11181;51.002;4.356;2022-12-29T04:45:28;3.23;;;0.70;;
22034;SDS011;11181;51.002;4.356;2022-12-29T04:47:55;3.33;;;0.70;;
22034;SDS011;11181;51.002;4.356;2022-12-29T04:50:22;1.43;;;0.67;;
22034;SDS011;11181;51.002;4.356;2022-12-29T04:52:49;1.07;;;0.57;;
22034;SDS011;11181;51.002;4.356;2022-12-29T04:55:16;4.90;;;0.93;;
22034;SDS011;11181;51.002;4.356;2022-12-29T04:57:44;4.93;;;0.63;;
22034;SDS011;11181;51.002;4.356;2022-12-29T05:00:11;3.57;;;0.80;;
22034;SDS011;11181;51.002;4.356;2022-12-29T05:02:39;4.03;;;0.70;;
22034;SDS011;11181;51.002;4.356;2022-12-29T05:05:07;2.60;;;0.53;;
22034;SDS011;11181;51.002;4.356;2022-12-29T05:07:34;4.30;;;0.70;;
22034;SDS011;11181;51.002;4.356;2022-12-29T05:10:01;1.70;;;0.87;;
22034;SDS011;11181;51.002;4.356;2022-12-29T05:12:29;3.80;;;0.63;;
22034;SDS011;11181;51.002;4.356;2022-12-29T05:14:58;2.67;;;0.70;;
22034;SDS011;11181;51.002;4.356;2022-12-29T05:17:25;1.37;;;0.87;;
22034;SDS011;11181;51.002;4.356;2022-12-29T05:19:52;6.47;;;0.77;;
22034;SDS011;11181;51.002;4.356;2022-12-29T05:22:19;3.30;;;0.60;;
22034;SDS011;11181;51.002;4.356;2022-12-29T05:24:46;1.63;;;0.60;;
22034;SDS011;11181;51.002;4.356;2022-12-29T05:27:13;5.10;;;1.00;;
22034;SDS011;11181;51.002;4.356;2022-12-29T05:29:40;5.07;;;1.00;;
22034;SDS011;11181;51.002;4.356;2022-12-29T05:32:08;7.10;;;1.20;;
22034;SDS011;11181;51.002;4.356;2022-12-29T05:34:35;6.37;;;0.63;;
22034;SDS011;11181;51.002;4.356;2022-12-29T05:37:02;2.00;;;0.97;;
22034;SDS011;11181;51.002;4.356;2022-12-29T05:39:29;4.70;;;1.00;;
22034;SDS011;11181;51.002;4.356;2022-12-29T05:41:56;3.90;;;0.97;;
22034;SDS011;11181;51.002;4.356;2022-12-29T05:44:23;2.20;;;0.77;;
22034;SDS011;11181;51.002;4.356;2022-12-29T05:46:50;5.93;;;0.90;;
22034;SDS011;11181;51.002;4.356;2022-12-29T05:49:18;6.13;;;1.30;;
22034;SDS011;11181;51.002;4.356;2022-12-29T05:51:45;5.57;;;1.03;;
22034;SDS011;11181;51.002;4.356;2022-12-29T05:54:12;2.97;;;0.97;;
22034;SDS011;11181;51.002;4.356;2022-12-29T05:56:39;4.93;;;0.97;;
22034;SDS011;11181;51.002;4.356;2022-12-29T05:59:06;6.37;;;0.90;;
22034;SDS011;11181;51.002;4.356;2022-12-29T06:01:33;5.97;;;1.00;;
22034;SDS011;11181;51.002;4.356;2022-12-29T06:04:00;2.10;;;0.73;;
22034;SDS011;11181;51.002;4.356;2022-12-29T06:06:29;6.80;;;1.40;;
22034;SDS011;11181;51.002;4.356;2022-12-29T06:08:55;5.97;;;0.97;;
22034;SDS011;11181;51.002;4.356;2022-12-29T06:11:22;5.27;;;1.23;;
22034;SDS011;11181;51.002;4.356;2022-12-29T06:13:49;5.20;;;1.00;;
22034;SDS011;11181;51.002;4.356;2022-12-29T06:16:16;4.67;;;2.17;;
22034;SDS011;11181;51.002;4.356;2022-12-29T06:18:43;4.33;;;1.20;;
22034;SDS011;11181;51.002;4.356;2022-12-29T06:21:10;4.33;;;0.90;;
22034;SDS011;11181;51.002;4.356;2022-12-29T06:23:39;7.47;;;1.63;;
22034;SDS011;11181;51.002;4.356;2022-12-29T06:26:06;6.07;;;1.30;;
22034;SDS011;11181;51.002;4.356;2022-12-29T06:28:33;9.37;;;1.30;;
22034;SDS011;11181;51.002;4.356;2022-12-29T06:30:59;7.70;;;2.27;;
22034;SDS011;11181;51.002;4.356;2022-12-29T06:33:27;7.13;;;1.43;;
22034;SDS011;11181;51.002;4.356;2022-12-29T06:35:54;7.37;;;1.03;;
22034;SDS011;11181;51.002;4.356;2022-12-29T06:38:21;7.33;;;1.73;;
22034;SDS011;11181;51.002;4.356;2022-12-29T06:40:50;3.00;;;1.03;;
22034;SDS011;11181;51.002;4.356;2022-12-29T06:43:17;8.60;;;1.50;;
22034;SDS011;11181;51.002;4.356;2022-12-29T06:45:43;8.20;;;1.33;;
22034;SDS011;11181;51.002;4.356;2022-12-29T06:48:10;9.27;;;1.53;;
22034;SDS011;11181;51.002;4.356;2022-12-29T06:50:37;10.33;;;1.20;;
22034;SDS011;11181;51.002;4.356;2022-12-29T06:53:04;7.53;;;1.97;;
22034;SDS011;11181;51.002;4.356;2022-12-29T06:55:32;3.97;;;1.30;;
22034;SDS011;11181;51.002;4.356;2022-12-29T06:58:00;7.23;;;1.13;;
22034;SDS011;11181;51.002;4.356;2022-12-29T07:00:27;10.93;;;1.60;;
22034;SDS011;11181;51.002;4.356;2022-12-29T07:02:54;6.20;;;1.77;;
22034;SDS011;11181;51.002;4.356;2022-12-29T07:05:22;4.83;;;1.50;;
22034;SDS011;11181;51.002;4.356;2022-12-29T07:07:52;8.30;;;1.57;;
22034;SDS011;11181;51.002;4.356;2022-12-29T07:10:19;6.40;;;1.30;;
22034;SDS011;11181;51.002;4.356;2022-12-29T07:12:46;7.13;;;3.03;;
22034;SDS011;11181;51.002;4.356;2022-12-29T07:15:15;5.17;;;1.23;;
22034;SDS011;11181;51.002;4.356;2022-12-29T07:17:42;7.27;;;2.03;;
22034;SDS011;11181;51.002;4.356;2022-12-29T07:20:09;4.67;;;1.37;;
22034;SDS011;11181;51.002;4.356;2022-12-29T07:22:36;5.27;;;1.37;;
22034;SDS011;11181;51.002;4.356;2022-12-29T07:25:04;4.37;;;1.13;;
22034;SDS011;11181;51.002;4.356;2022-12-29T07:27:31;7.10;;;1.27;;
22034;SDS011;11181;51.002;4.356;2022-12-29T07:29:58;3.67;;;1.57;;
22034;SDS011;11181;51.002;4.356;2022-12-29T07:32:26;8.23;;;1.80;;
22034;SDS011;11181;51.002;4.356;2022-12-29T07:34:54;4.47;;;1.23;;
22034;SDS011;11181;51.002;4.356;2022-12-29T07:37:21;9.60;;;1.20;;
22034;SDS011;11181;51.002;4.356;2022-12-29T07:39:48;7.23;;;1.30;;
22034;SDS011;11181;51.002;4.356;2022-12-29T07:42:15;4.33;;;1.33;;
22034;SDS011;11181;51.002;4.356;2022-12-29T07:44:42;12.30;;;1.27;;
22034;SDS011;11181;51.002;4.356;2022-12-29T07:47:09;5.03;;;0.97;;
22034;SDS011;11181;51.002;4.356;2022-12-29T07:49:37;6.60;;;1.77;;
22034;SDS011;11181;51.002;4.356;2022-12-29T07:52:04;7.57;;;1.60;;
22034;SDS011;11181;51.002;4.356;2022-12-29T07:54:31;5.17;;;1.73;;
22034;SDS011;11181;51.002;4.356;2022-12-29T07:56:58;5.80;;;1.50;;
22034;SDS011;11181;51.002;4.356;2022-12-29T07:59:26;3.53;;;0.90;;
22034;SDS011;11181;51.002;4.356;2022-12-29T08:01:53;10.67;;;2.20;;
22034;SDS011;11181;51.002;4.356;2022-12-29T08:04:20;6.90;;;1.57;;
22034;SDS011;11181;51.002;4.356;2022-12-29T08:06:49;5.00;;;0.97;;
22034;SDS011;11181;51.002;4.356;2022-12-29T08:09:16;9.47;;;1.50;;
22034;SDS011;11181;51.002;4.356;2022-12-29T08:11:43;6.57;;;1.60;;
22034;SDS011;11181;51.002;4.356;2022-12-29T08:14:10;7.37;;;1.67;;
22034;SDS011;11181;51.002;4.356;2022-12-29T08:16:37;7.97;;;2.33;;
22034;SDS011;11181;51.002;4.356;2022-12-29T08:19:04;8.03;;;1.57;;
22034;SDS011;11181;51.002;4.356;2022-12-29T08:21:31;4.20;;;1.20;;
22034;SDS011;11181;51.002;4.356;2022-12-29T08:23:59;10.90;;;2.33;;
22034;SDS011;11181;51.002;4.356;2022-12-29T08:26:26;8.87;;;1.20;;
22034;SDS011;11181;51.002;4.356;2022-12-29T08:28:53;8.33;;;1.60;;
22034;SDS011;11181;51.002;4.356;2022-12-29T08:31:21;7.73;;;1.40;;
22034;SDS011;11181;51.002;4.356;2022-12-29T08:33:48;8.17;;;1.70;;
22034;SDS011;11181;51.002;4.356;2022-12-29T08:36:15;5.43;;;1.40;;
22034;SDS011;11181;51.002;4.356;2022-12-29T08:38:43;8.33;;;1.47;;
22034;SDS011;11181;51.002;4.356;2022-12-29T08:41:11;4.47;;;1.10;;
22034;SDS011;11181;51.002;4.356;2022-12-29T08:43:38;8.00;;;1.50;;
22034;SDS011;11181;51.002;4.356;2022-12-29T08:46:05;6.47;;;2.10;;
22034;SDS011;11181;51.002;4.356;2022-12-29T08:48:32;7.00;;;2.00;;
22034;SDS011;11181;51.002;4.356;2022-12-29T08:50:59;4.47;;;1.17;;
22034;SDS011;11181;51.002;4.356;2022-12-29T08:53:26;6.80;;;1.33;;
22034;SDS011;11181;51.002;4.356;2022-12-29T08:55:57;9.23;;;1.97;;
22034;SDS011;11181;51.002;4.356;2022-12-29T08:58:27;7.30;;;1.63;;
22034;SDS011;11181;51.002;4.356;2022-12-29T09:00:54;7.20;;;1.60;;
22034;SDS011;11181;51.002;4.356;2022-12-29T09:03:22;3.43;;;0.80;;
22034;SDS011;11181;51.002;4.356;2022-12-29T09:05:50;8.00;;;2.37;;
22034;SDS011;11181;51.002;4.356;2022-12-29T09:08:19;8.23;;;2.70;;
22034;SDS011;11181;51.002;4.356;2022-12-29T09:10:47;4.87;;;1.70;;
22034;SDS011;11181;51.002;4.356;2022-12-29T09:13:14;6.83;;;1.90;;
22034;SDS011;11181;51.002;4.356;2022-12-29T09:15:43;9.67;;;2.60;;
22034;SDS011;11181;51.002;4.356;2022-12-29T09:18:10;6.60;;;2.03;;
22034;SDS011;11181;51.002;4.356;2022-12-29T09:20:38;7.83;;;1.67;;
22034;SDS011;11181;51.002;4.356;2022-12-29T09:23:05;8.93;;;1.47;;
22034;SDS011;11181;51.002;4.356;2022-12-29T09:25:32;8.43;;;1.80;;
22034;SDS011;11181;51.002;4.356;2022-12-29T09:28:00;10.23;;;1.90;;
22034;SDS011;11181;51.002;4.356;2022-12-29T09:30:31;6.70;;;1.73;;
22034;SDS011;11181;51.002;4.356;2022-12-29T09:32:59;9.60;;;1.73;;
22034;SDS011;11181;51.002;4.356;2022-12-29T09:35:26;11.67;;;2.47;;
22034;SDS011;11181;51.002;4.356;2022-12-29T09:37:53;10.87;;;1.67;;
22034;SDS011;11181;51.002;4.356;2022-12-29T09:40:24;10.37;;;1.40;;
22034;SDS011;11181;51.002;4.356;2022-12-29T09:43:04;6.03;;;1.20;;
22034;SDS011;11181;51.002;4.356;2022-12-29T09:45:47;6.50;;;1.43;;
22034;SDS011;11181;51.002;4.356;2022-12-29T09:48:21;10.00;;;1.70;;
22034;SDS011;11181;51.002;4.356;2022-12-29T09:50:52;7.77;;;1.57;;
22034;SDS011;11181;51.002;4.356;2022-12-29T09:53:25;7.83;;;2.37;;
22034;SDS011;11181;51.002;4.356;2022-12-29T09:55:56;6.70;;;1.63;;
22034;SDS011;11181;51.002;4.356;2022-12-29T09:58:28;11.20;;;2.03;;
22034;SDS011;11181;51.002;4.356;2022-12-29T10:01:00;8.67;;;1.80;;
22034;SDS011;11181;51.002;4.356;2022-12-29T10:03:35;7.03;;;1.60;;
22034;SDS011;11181;51.002;4.356;2022-12-29T10:06:09;12.37;;;2.43;;
22034;SDS011;11181;51.002;4.356;2022-12-29T10:08:41;8.33;;;1.70;;
22034;SDS011;11181;51.002;4.356;2022-12-29T10:11:16;12.60;;;2.30;;
22034;SDS011;11181;51.002;4.356;2022-12-29T10:14:07;6.47;;;2.03;;
22034;SDS011;11181;51.002;4.356;2022-12-29T10:16:48;9.77;;;1.93;;
22034;SDS011;11181;51.002;4.356;2022-12-29T10:19:29;10.47;;;1.70;;
22034;SDS011;11181;51.002;4.356;2022-12-29T10:22:12;5.70;;;1.83;;
22034;SDS011;11181;51.002;4.356;2022-12-29T10:24:49;5.90;;;1.50;;
22034;SDS011;11181;51.002;4.356;2022-12-29T10:27:19;12.53;;;1.83;;
22034;SDS011;11181;51.002;4.356;2022-12-29T10:29:48;6.97;;;1.60;;
22034;SDS011;11181;51.002;4.356;2022-12-29T10:32:22;10.00;;;1.67;;
22034;SDS011;11181;51.002;4.356;2022-12-29T10:34:55;12.10;;;2.10;;
22034;SDS011;11181;51.002;4.356;2022-12-29T10:37:29;12.10;;;2.17;;
22034;SDS011;11181;51.002;4.356;2022-12-29T10:40:00;5.63;;;1.90;;
22034;SDS011;11181;51.002;4.356;2022-12-29T10:42:39;6.87;;;1.70;;
22034;SDS011;11181;51.002;4.356;2022-12-29T10:45:11;6.43;;;2.30;;
22034;SDS011;11181;51.002;4.356;2022-12-29T10:47:44;10.67;;;2.00;;
22034;SDS011;11181;51.002;4.356;2022-12-29T10:50:19;6.40;;;1.77;;
22034;SDS011;11181;51.002;4.356;2022-12-29T10:52:46;8.73;;;1.73;;
22034;SDS011;11181;51.002;4.356;2022-12-29T10:55:15;11.30;;;1.97;;
22034;SDS011;11181;51.002;4.356;2022-12-29T10:57:47;8.63;;;1.50;;
22034;SDS011;11181;51.002;4.356;2022-12-29T11:00:15;6.00;;;1.50;;
22034;SDS011;11181;51.002;4.356;2022-12-29T11:02:55;7.63;;;1.63;;
22034;SDS011;11181;51.002;4.356;2022-12-29T11:05:39;7.03;;;2.03;;
22034;SDS011;11181;51.002;4.356;2022-12-29T11:08:11;13.23;;;1.90;;
22034;SDS011;11181;51.002;4.356;2022-12-29T11:10:41;13.67;;;1.83;;
22034;SDS011;11181;51.002;4.356;2022-12-29T11:13:11;5.73;;;1.60;;
22034;SDS011;11181;51.002;4.356;2022-12-29T11:15:41;9.57;;;1.90;;
22034;SDS011;11181;51.002;4.356;2022-12-29T11:18:20;10.77;;;2.03;;
22034;SDS011;11181;51.002;4.356;2022-12-29T11:20:51;7.60;;;1.63;;
22034;SDS011;11181;51.002;4.356;2022-12-29T11:23:23;11.30;;;2.20;;
22034;SDS011;11181;51.002;4.356;2022-12-29T11:26:11;7.67;;;1.60;;
22034;SDS011;11181;51.002;4.356;2022-12-29T11:28:43;11.90;;;2.20;;
22034;SDS011;11181;51.002;4.356;2022-12-29T11:31:15;5.57;;;1.80;;
22034;SDS011;11181;51.002;4.356;2022-12-29T11:33:43;10.27;;;1.90;;
22034;SDS011;11181;51.002;4.356;2022-12-29T11:36:13;9.87;;;1.47;;
22034;SDS011;11181;51.002;4.356;2022-12-29T11:38:45;7.53;;;1.87;;
22034;SDS011;11181;51.002;4.356;2022-12-29T11:41:19;6.70;;;2.33;;
22034;SDS011;11181;51.002;4.356;2022-12-29T11:43:48;7.50;;;1.50;;
22034;SDS011;11181;51.002;4.356;2022-12-29T11:46:16;7.03;;;1.30;;
22034;SDS011;11181;51.002;4.356;2022-12-29T11:48:46;6.53;;;1.63;;
22034;SDS011;11181;51.002;4.356;2022-12-29T11:51:22;4.60;;;1.30;;
22034;SDS011;11181;51.002;4.356;2022-12-29T11:53:52;5.87;;;1.67;;
22034;SDS011;11181;51.002;4.356;2022-12-29T11:56:32;5.53;;;1.80;;
22034;SDS011;11181;51.002;4.356;2022-12-29T12:02:03;9.37;;;1.60;;
22034;SDS011;11181;51.002;4.356;2022-12-29T12:04:46;8.03;;;1.87;;
22034;SDS011;11181;51.002;4.356;2022-12-29T12:07:19;11.50;;;2.77;;
22034;SDS011;11181;51.002;4.356;2022-12-29T12:09:51;5.00;;;1.90;;
22034;SDS011;11181;51.002;4.356;2022-12-29T12:12:24;7.87;;;1.70;;
22034;SDS011;11181;51.002;4.356;2022-12-29T12:14:57;8.07;;;2.23;;
22034;SDS011;11181;51.002;4.356;2022-12-29T12:17:26;8.90;;;1.70;;
22034;SDS011;11181;51.002;4.356;2022-12-29T12:20:04;7.60;;;3.03;;
22034;SDS011;11181;51.002;4.356;2022-12-29T12:22:43;4.90;;;1.47;;
22034;SDS011;11181;51.002;4.356;2022-12-29T12:25:17;9.07;;;1.80;;
22034;SDS011;11181;51.002;4.356;2022-12-29T12:27:48;5.93;;;1.33;;
22034;SDS011;11181;51.002;4.356;2022-12-29T12:30:21;6.40;;;2.10;;
22034;SDS011;11181;51.002;4.356;2022-12-29T12:32:51;5.03;;;1.30;;
22034;SDS011;11181;51.002;4.356;2022-12-29T12:35:23;7.57;;;1.60;;
22034;SDS011;11181;51.002;4.356;2022-12-29T12:38:03;12.30;;;2.33;;
22034;SDS011;11181;51.002;4.356;2022-12-29T12:40:42;9.97;;;2.80;;
22034;SDS011;11181;51.002;4.356;2022-12-29T12:46:07;7.60;;;1.73;;
22034;SDS011;11181;51.002;4.356;2022-12-29T12:48:58;8.50;;;1.80;;
22034;SDS011;11181;51.002;4.356;2022-12-29T12:51:35;5.83;;;1.43;;
22034;SDS011;11181;51.002;4.356;2022-12-29T12:54:14;3.60;;;1.20;;
22034;SDS011;11181;51.002;4.356;2022-12-29T12:56:59;4.93;;;1.90;;
22034;SDS011;11181;51.002;4.356;2022-12-29T12:59:38;7.33;;;1.60;;
22034;SDS011;11181;51.002;4.356;2022-12-29T13:02:20;4.60;;;1.60;;
22034;SDS011;11181;51.002;4.356;2022-12-29T13:05:14;4.73;;;1.67;;
22034;SDS011;11181;51.002;4.356;2022-12-29T13:07:51;6.43;;;1.60;;
22034;SDS011;11181;51.002;4.356;2022-12-29T13:10:34;13.33;;;2.03;;
22034;SDS011;11181;51.002;4.356;2022-12-29T13:13:15;9.17;;;2.07;;
22034;SDS011;11181;51.002;4.356;2022-12-29T13:15:57;6.70;;;1.90;;
22034;SDS011;11181;51.002;4.356;2022-12-29T13:18:31;4.97;;;1.47;;
22034;SDS011;11181;51.002;4.356;2022-12-29T13:21:04;9.07;;;2.40;;
22034;SDS011;11181;51.002;4.356;2022-12-29T13:23:38;7.73;;;1.60;;
22034;SDS011;11181;51.002;4.356;2022-12-29T13:26:14;6.27;;;1.27;;
22034;SDS011;11181;51.002;4.356;2022-12-29T13:28:50;8.03;;;1.80;;
22034;SDS011;11181;51.002;4.356;2022-12-29T13:31:24;18.30;;;3.53;;
22034;SDS011;11181;51.002;4.356;2022-12-29T13:33:58;3.50;;;1.40;;
22034;SDS011;11181;51.002;4.356;2022-12-29T13:36:33;5.13;;;1.20;;
22034;SDS011;11181;51.002;4.356;2022-12-29T13:39:09;6.97;;;2.10;;
22034;SDS011;11181;51.002;4.356;2022-12-29T13:41:42;6.30;;;1.83;;
22034;SDS011;11181;51.002;4.356;2022-12-29T13:44:14;3.53;;;1.33;;
22034;SDS011;11181;51.002;4.356;2022-12-29T13:46:45;4.77;;;1.17;;
22034;SDS011;11181;51.002;4.356;2022-12-29T13:49:13;7.13;;;1.97;;
22034;SDS011;11181;51.002;4.356;2022-12-29T13:51:43;6.00;;;1.67;;
22034;SDS011;11181;51.002;4.356;2022-12-29T13:54:17;7.53;;;1.50;;
22034;SDS011;11181;51.002;4.356;2022-12-29T13:56:56;5.80;;;1.40;;
22034;SDS011;11181;51.002;4.356;2022-12-29T13:59:36;7.83;;;1.50;;
22034;SDS011;11181;51.002;4.356;2022-12-29T14:02:13;9.17;;;1.87;;
22034;SDS011;11181;51.002;4.356;2022-12-29T14:04:56;7.23;;;2.00;;
22034;SDS011;11181;51.002;4.356;2022-12-29T14:07:24;5.00;;;1.27;;
22034;SDS011;11181;51.002;4.356;2022-12-29T14:09:55;8.03;;;2.00;;
22034;SDS011;11181;51.002;4.356;2022-12-29T14:20:56;6.90;;;1.00;;
22034;SDS011;11181;51.002;4.356;2022-12-29T14:23:26;1.90;;;0.80;;
22034;SDS011;11181;51.002;4.356;2022-12-29T14:26:12;2.13;;;0.73;;
22034;SDS011;11181;51.002;4.356;2022-12-29T14:28:47;1.63;;;1.03;;
22034;SDS011;11181;51.002;4.356;2022-12-29T14:34:27;1.40;;;0.60;;
22034;SDS011;11181;51.002;4.356;2022-12-29T14:36:56;2.83;;;0.70;;
22034;SDS011;11181;51.002;4.356;2022-12-29T14:39:32;1.87;;;0.57;;
22034;SDS011;11181;51.002;4.356;2022-12-29T14:42:04;2.00;;;0.90;;
22034;SDS011;11181;51.002;4.356;2022-12-29T14:44:34;6.33;;;0.93;;
22034;SDS011;11181;51.002;4.356;2022-12-29T14:47:14;4.00;;;0.80;;
22034;SDS011;11181;51.002;4.356;2022-12-29T14:49:45;3.30;;;0.90;;
22034;SDS011;11181;51.002;4.356;2022-12-29T14:52:14;5.77;;;1.40;;
22034;SDS011;11181;51.002;4.356;2022-12-29T14:54:45;1.43;;;0.80;;
22034;SDS011;11181;51.002;4.356;2022-12-29T15:00:04;5.70;;;1.00;;
22034;SDS011;11181;51.002;4.356;2022-12-29T15:02:36;5.67;;;1.07;;
22034;SDS011;11181;51.002;4.356;2022-12-29T15:05:20;6.13;;;1.27;;
22034;SDS011;11181;51.002;4.356;2022-12-29T15:08:00;2.57;;;0.73;;
22034;SDS011;11181;51.002;4.356;2022-12-29T15:10:32;2.97;;;1.00;;
22034;SDS011;11181;51.002;4.356;2022-12-29T15:13:04;2.60;;;0.63;;
22034;SDS011;11181;51.002;4.356;2022-12-29T15:15:41;3.47;;;1.33;;
22034;SDS011;11181;51.002;4.356;2022-12-29T15:20:57;5.83;;;1.23;;
22034;SDS011;11181;51.002;4.356;2022-12-29T15:23:26;6.77;;;1.40;;
22034;SDS011;11181;51.002;4.356;2022-12-29T15:26:00;8.37;;;1.23;;
22034;SDS011;11181;51.002;4.356;2022-12-29T15:28:37;9.67;;;1.70;;
22034;SDS011;11181;51.002;4.356;2022-12-29T15:31:09;6.87;;;1.10;;
22034;SDS011;11181;51.002;4.356;2022-12-29T15:33:41;4.40;;;1.40;;
22034;SDS011;11181;51.002;4.356;2022-12-29T15:36:26;6.77;;;1.93;;
22034;SDS011;11181;51.002;4.356;2022-12-29T15:39:19;5.03;;;1.43;;
22034;SDS011;11181;51.002;4.356;2022-12-29T15:42:06;6.93;;;1.00;;